Time;durP1;ratioP1;P1;durP2;ratioP2;P2;SDS_P1;SDS_P2;PMS_P1;PMS_P2;Temp;Humidity;BMP_temperature;BMP_pressure;BME280_temperature;BME280_humidity;BME280_pressure;Samples;Min_cycle;Max_cycle;Signal;HPM_P1;HPM_P2
2023/09/20 00:01:37;;;;;;;8.35;3.55;;;;;;;19.43;69.86;98413.78;5070937;28;20263;-57
2023/09/20 00:04:06;;;;;;;4.38;3.97;;;;;;;19.46;69.86;98410.81;5112403;28;20685;-57
2023/09/20 00:06:32;;;;;;;4.30;3.92;;;;;;;19.51;69.95;98402.44;5112457;28;20172;-57
2023/09/20 00:08:58;;;;;;;4.43;3.70;;;;;;;19.65;68.92;98414.97;5112305;28;20178;-57
2023/09/20 00:11:24;;;;;;;4.88;3.50;;;;;;;19.72;68.89;98421.22;5112251;28;20183;-57
2023/09/20 00:13:49;;;;;;;4.28;3.50;;;;;;;19.55;69.67;98417.75;5111788;28;20586;-57
2023/09/20 00:16:16;;;;;;;4.75;3.70;;;;;;;19.39;70.38;98382.75;5112195;28;20171;-57
2023/09/20 00:18:41;;;;;;;4.32;3.50;;;;;;;19.39;70.70;98377.50;5112230;28;20179;-57
2023/09/20 00:21:07;;;;;;;3.97;3.22;;;;;;;19.47;71.96;98396.72;5048796;28;20697;-57
2023/09/20 00:23:32;;;;;;;4.45;3.80;;;;;;;19.64;73.03;98408.06;5049000;28;20197;-57
2023/09/20 00:25:58;;;;;;;3.95;3.30;;;;;;;19.68;73.68;98398.88;5049009;28;20223;-57
2023/09/20 00:28:23;;;;;;;5.38;4.07;;;;;;;19.46;74.11;98365.41;5048942;28;20560;-57
2023/09/20 00:30:49;;;;;;;4.32;3.92;;;;;;;19.63;74.19;98395.91;5048859;28;20716;-57
2023/09/20 00:33:15;;;;;;;8.23;4.28;;;;;;;19.34;74.48;98354.38;5049056;28;20639;-57
2023/09/20 00:35:40;;;;;;;3.95;3.40;;;;;;;19.40;74.94;98366.84;5049002;28;20232;-57
2023/09/20 00:38:06;;;;;;;4.03;3.63;;;;;;;19.48;75.16;98371.28;5049039;28;20181;-57
2023/09/20 00:40:39;;;;;;;6.80;4.43;;;;;;;19.56;75.07;98359.00;5048724;28;20207;-57
2023/09/20 00:43:07;;;;;;;4.47;4.07;;;;;;;19.41;74.59;98309.94;5048557;28;20351;-57
2023/09/20 00:45:33;;;;;;;6.22;3.70;;;;;;;19.40;73.40;98310.94;5048790;28;20258;-57
2023/09/20 00:47:59;;;;;;;3.95;3.65;;;;;;;19.46;72.46;98321.59;5007873;28;20206;-57
2023/09/20 00:50:31;;;;;;;5.38;3.60;;;;;;;19.70;70.99;98339.16;5009330;28;20281;-57
2023/09/20 00:52:58;;;;;;;5.15;3.70;;;;;;;19.51;70.19;98302.72;5060012;28;20330;-57
2023/09/20 00:55:28;;;;;;;5.30;3.00;;;;;;;19.55;69.36;98289.13;5068719;28;20188;-57
2023/09/20 00:58:00;;;;;;;6.03;3.58;;;;;;;19.90;68.95;98325.53;5035310;28;20188;-57
2023/09/20 01:00:32;;;;;;;6.65;3.75;;;;;;;20.09;67.71;98325.22;4989401;28;20197;-57
2023/09/20 01:03:00;;;;;;;7.93;3.70;;;;;;;20.18;68.03;98324.25;4989446;28;20668;-57
2023/09/20 01:05:36;;;;;;;3.63;3.33;;;;;;;20.15;67.69;98292.19;4989385;28;20196;-57
2023/09/20 01:08:03;;;;;;;5.57;4.28;;;;;;;20.25;68.17;98295.47;4957582;28;20186;-57
2023/09/20 01:10:31;;;;;;;4.38;3.60;;;;;;;20.21;68.30;98276.59;4989225;28;20206;-57
2023/09/20 01:13:04;;;;;;;4.65;3.75;;;;;;;20.20;68.41;98271.50;4988773;28;20211;-57
2023/09/20 01:15:31;;;;;;;5.78;2.97;;;;;;;20.27;68.72;98282.97;4988891;28;20195;-57
2023/09/20 01:17:58;;;;;;;5.38;3.47;;;;;;;20.27;68.76;98286.44;4990697;28;20193;-57
2023/09/20 01:20:31;;;;;;;4.13;3.55;;;;;;;20.28;69.09;98292.53;5008704;28;20197;-57
2023/09/20 01:22:58;;;;;;;4.63;3.55;;;;;;;20.01;69.80;98270.06;5008780;28;20465;-57
2023/09/20 01:25:31;;;;;;;4.53;3.53;;;;;;;20.16;69.35;98296.50;4960291;28;20182;-57
2023/09/20 01:28:03;;;;;;;4.82;3.75;;;;;;;20.17;69.40;98295.50;5008722;28;20240;-57
2023/09/20 01:30:32;;;;;;;4.55;3.53;;;;;;;20.10;69.19;98289.28;5022013;28;20213;-57
2023/09/20 01:32:59;;;;;;;3.90;3.60;;;;;;;20.08;69.58;98291.22;5111293;28;20245;-57
2023/09/20 01:35:29;;;;;;;8.68;3.58;;;;;;;19.92;70.26;98263.16;5111304;28;20219;-57
2023/09/20 01:37:55;;;;;;;4.60;4.03;;;;;;;19.95;70.71;98281.22;5111077;28;20224;-57
2023/09/20 01:40:25;;;;;;;5.70;3.63;;;;;;;20.02;70.83;98294.50;5110295;28;20171;-57
2023/09/20 01:42:58;;;;;;;5.00;3.83;;;;;;;19.98;71.14;98296.63;5111062;28;20207;-57
2023/09/20 01:45:24;;;;;;;6.60;4.28;;;;;;;19.81;71.59;98267.94;5111245;28;20484;-57
2023/09/20 01:47:51;;;;;;;3.70;3.40;;;;;;;19.75;71.88;98271.25;5110872;28;20179;-57
2023/09/20 01:50:19;;;;;;;3.70;3.45;;;;;;;19.60;72.46;98259.75;5111127;28;20220;-57
2023/09/20 01:52:58;;;;;;;4.38;3.97;;;;;;;19.80;72.47;98295.16;5111090;28;20218;-57
2023/09/20 01:55:27;;;;;;;3.47;3.17;;;;;;;19.78;72.58;98305.84;5111606;28;20175;-57
2023/09/20 01:57:59;;;;;;;4.90;4.03;;;;;;;19.61;72.60;98283.22;5114980;28;20645;-57
2023/09/20 02:00:29;;;;;;;5.57;3.90;;;;;;;19.79;72.96;98314.53;5115148;28;20179;-57
2023/09/20 02:02:57;;;;;;;4.97;3.95;;;;;;;19.82;72.44;98311.59;5114848;28;20207;-57
2023/09/20 02:05:24;;;;;;;3.70;3.40;;;;;;;19.80;72.49;98313.53;5114922;28;20225;-57
2023/09/20 02:07:51;;;;;;;6.00;3.58;;;;;;;19.71;72.35;98298.81;5114844;28;20510;-57
2023/09/20 02:10:17;;;;;;;7.05;3.92;;;;;;;19.83;72.17;98319.31;5114311;28;20546;-57
2023/09/20 02:12:56;;;;;;;4.88;3.88;;;;;;;19.69;71.79;98298.16;5114691;28;20282;-57
2023/09/20 02:15:23;;;;;;;4.10;3.70;;;;;;;19.77;71.56;98329.66;5114773;28;20262;-57
2023/09/20 02:17:50;;;;;;;4.38;3.67;;;;;;;19.70;72.13;98316.34;5114580;28;20194;-57
2023/09/20 02:20:19;;;;;;;4.97;3.70;;;;;;;19.77;72.01;98321.78;5114683;28;20175;-57
2023/09/20 02:22:47;;;;;;;5.35;3.75;;;;;;;19.90;72.46;98324.72;5114522;28;20209;-57
2023/09/20 02:25:13;;;;;;;4.40;4.00;;;;;;;19.82;72.31;98306.34;5114442;28;20183;-57
2023/09/20 02:27:40;;;;;;;5.53;3.90;;;;;;;19.86;73.26;98329.47;5114480;28;20633;-57
2023/09/20 02:30:19;;;;;;;4.55;3.90;;;;;;;19.79;74.57;98341.63;5114341;28;20178;-57
2023/09/20 02:32:49;;;;;;;4.50;4.10;;;;;;;19.72;74.01;98326.69;5114448;28;20175;-57
2023/09/20 02:35:16;;;;;;;4.88;3.85;;;;;;;19.97;72.21;98342.28;5114354;28;20275;-57
2023/09/20 02:37:41;;;;;;;4.15;3.85;;;;;;;20.03;71.53;98341.63;5114309;28;20175;-57
2023/09/20 02:40:07;;;;;;;5.07;4.10;;;;;;;19.86;71.45;98320.75;5114107;28;20178;-57
2023/09/20 02:42:43;;;;;;;5.55;3.42;;;;;;;19.95;70.47;98311.91;5113960;28;20511;-57
2023/09/20 02:45:10;;;;;;;6.20;3.92;;;;;;;19.96;71.13;98324.06;5114166;28;20179;-57
2023/09/20 02:47:36;;;;;;;4.88;3.72;;;;;;;19.92;71.20;98344.56;5114045;28;20179;-57
2023/09/20 02:50:04;;;;;;;6.65;4.18;;;;;;;19.69;71.00;98306.03;5113965;28;20606;-57
2023/09/20 02:52:33;;;;;;;4.15;3.75;;;;;;;19.89;71.69;98337.03;5114009;28;20186;-57
2023/09/20 02:55:00;;;;;;;4.57;3.63;;;;;;;19.78;71.63;98305.84;5113936;28;20210;-57
2023/09/20 02:57:26;;;;;;;5.97;3.60;;;;;;;19.99;71.41;98329.00;5114135;28;20175;-57
2023/09/20 02:59:51;;;;;;;4.03;3.72;;;;;;;19.94;71.52;98334.72;5113860;28;20254;-57
2023/09/20 03:02:17;;;;;;;4.05;3.65;;;;;;;19.78;71.32;98315.53;5090637;28;20223;-57
2023/09/20 03:04:42;;;;;;;3.90;3.60;;;;;;;19.59;72.09;98294.88;5090963;28;20761;-57
2023/09/20 03:07:09;;;;;;;4.32;3.92;;;;;;;19.69;72.22;98327.84;5090494;28;20278;-56
2023/09/20 03:09:36;;;;;;;4.47;3.92;;;;;;;19.67;73.33;98342.09;5090818;28;20191;-56
2023/09/20 03:12:06;;;;;;;5.60;4.03;;;;;;;19.64;73.29;98329.31;5090440;28;20639;-56
2023/09/20 03:14:39;;;;;;;5.60;3.80;;;;;;;19.69;73.00;98342.78;5090796;28;20695;-56
2023/09/20 03:17:05;;;;;;;5.20;4.10;;;;;;;19.44;73.32;98301.72;5090654;28;20227;-57
2023/09/20 03:19:31;;;;;;;4.25;3.65;;;;;;;19.59;73.38;98344.75;5090621;28;20180;-57
2023/09/20 03:21:59;;;;;;;5.20;3.53;;;;;;;19.53;73.43;98338.31;5090402;28;20831;-57
2023/09/20 03:24:25;;;;;;;6.28;3.55;;;;;;;19.51;73.93;98347.34;5090442;28;20184;-57
2023/09/20 03:26:52;;;;;;;4.68;3.72;;;;;;;19.42;73.48;98317.63;5090460;28;20258;-57
2023/09/20 03:29:18;;;;;;;6.57;3.90;;;;;;;19.26;73.92;98315.00;5090329;28;20186;-57
2023/09/20 03:31:44;;;;;;;4.80;4.10;;;;;;;19.32;74.32;98337.13;5090346;28;20184;-57
2023/09/20 03:34:11;;;;;;;4.18;3.88;;;;;;;19.24;74.68;98331.88;5109807;28;20308;-57
2023/09/20 03:36:38;;;;;;;4.13;3.72;;;;;;;19.14;74.92;98324.13;5113129;28;20190;-57
2023/09/20 03:39:05;;;;;;;4.95;4.07;;;;;;;19.10;75.54;98328.03;5113084;28;20626;-57
2023/09/20 03:41:31;;;;;;;6.68;3.85;;;;;;;19.11;74.98;98315.75;5112956;28;20195;-57
2023/09/20 03:43:56;;;;;;;4.40;4.00;;;;;;;19.09;74.41;98313.28;5113046;28;20886;-57
2023/09/20 03:46:22;;;;;;;6.38;4.00;;;;;;;19.15;75.19;98322.31;5113184;28;20179;-57
2023/09/20 03:48:47;;;;;;;4.65;3.70;;;;;;;19.20;75.02;98354.13;5112903;28;20560;-57
2023/09/20 03:51:15;;;;;;;5.53;3.67;;;;;;;19.21;74.58;98347.94;5112872;28;20232;-57
2023/09/20 03:53:44;;;;;;;5.32;3.78;;;;;;;19.15;74.57;98335.44;5112817;28;20178;-57
2023/09/20 03:56:11;;;;;;;4.13;3.30;;;;;;;19.03;74.45;98324.44;5113082;28;20175;-57
2023/09/20 03:58:37;;;;;;;4.78;3.83;;;;;;;18.83;75.16;98322.22;5112758;28;20183;-58
2023/09/20 04:01:02;;;;;;;3.28;3.08;;;;;;;18.92;75.01;98337.00;5112945;28;20282;-58
2023/09/20 04:03:28;;;;;;;3.85;3.55;;;;;;;18.91;75.10;98340.59;5112403;28;20171;-57
2023/09/20 04:05:57;;;;;;;4.60;3.72;;;;;;;18.98;75.61;98352.09;5112263;28;20171;-57
2023/09/20 04:08:22;;;;;;;5.25;3.58;;;;;;;18.76;75.94;98316.78;5112557;28;20173;-57
2023/09/20 04:10:48;;;;;;;3.80;3.45;;;;;;;18.66;75.33;98313.47;5112062;28;20184;-57
2023/09/20 04:13:14;;;;;;;5.15;2.90;;;;;;;18.95;75.65;98347.19;5112448;28;20206;-57
2023/09/20 04:15:42;;;;;;;3.85;3.05;;;;;;;18.91;75.75;98343.22;5112130;28;20594;-57
2023/09/20 04:18:11;;;;;;;5.88;3.47;;;;;;;19.06;74.92;98354.75;5111560;28;20270;-57
2023/09/20 04:20:37;;;;;;;3.92;3.63;;;;;;;19.06;74.47;98337.19;5111996;28;20259;-57
2023/09/20 04:23:03;;;;;;;4.32;3.92;;;;;;;19.01;74.26;98336.84;5112104;28;20274;-57
2023/09/20 04:25:29;;;;;;;3.80;3.50;;;;;;;18.85;74.43;98325.50;5112182;28;20262;-56
2023/09/20 04:27:54;;;;;;;4.40;3.80;;;;;;;19.04;74.67;98343.59;5112118;28;20258;-56
2023/09/20 04:30:20;;;;;;;5.47;3.88;;;;;;;19.18;74.37;98359.53;5112118;28;20178;-57
2023/09/20 04:32:46;;;;;;;3.40;3.10;;;;;;;18.89;74.61;98332.88;5112285;28;20630;-57
2023/09/20 04:35:12;;;;;;;3.78;3.47;;;;;;;18.82;76.08;98337.13;5111989;28;20202;-57
2023/09/20 04:37:38;;;;;;;7.57;4.07;;;;;;;18.89;76.43;98353.06;5112199;28;20641;-57
2023/09/20 04:40:05;;;;;;;7.53;3.72;;;;;;;18.82;76.95;98339.75;5112208;28;20527;-57
2023/09/20 04:42:33;;;;;;;4.18;3.53;;;;;;;18.88;77.32;98346.97;5111953;28;20207;-57
2023/09/20 04:44:59;;;;;;;4.20;3.80;;;;;;;18.83;75.68;98340.59;5112185;28;20328;-57
2023/09/20 04:47:24;;;;;;;4.57;3.42;;;;;;;19.01;76.37;98367.53;5112041;28;20673;-57
2023/09/20 04:49:50;;;;;;;4.63;3.88;;;;;;;18.89;78.28;98361.72;5112025;28;20191;-57
2023/09/20 04:52:16;;;;;;;7.97;3.80;;;;;;;19.08;77.24;98365.91;5112024;28;20676;-57
2023/09/20 04:54:43;;;;;;;4.15;3.75;;;;;;;18.93;76.56;98343.88;5112039;28;20175;-56
2023/09/20 04:57:09;;;;;;;4.35;3.75;;;;;;;19.04;75.75;98367.19;5111877;28;20200;-57
2023/09/20 04:59:36;;;;;;;3.95;3.63;;;;;;;19.09;75.41;98359.66;5111639;28;20175;-57
2023/09/20 05:02:03;;;;;;;4.22;3.83;;;;;;;18.95;75.18;98336.69;5111366;28;20221;-56
2023/09/20 05:04:29;;;;;;;3.95;3.65;;;;;;;19.07;75.28;98369.50;5111789;28;20179;-57
2023/09/20 05:06:55;;;;;;;7.07;3.95;;;;;;;19.01;75.41;98362.28;5111486;28;20557;-57
2023/09/20 05:09:21;;;;;;;5.35;4.28;;;;;;;19.03;75.44;98376.03;5111797;28;20174;-57
2023/09/20 05:11:46;;;;;;;4.60;4.18;;;;;;;18.91;75.69;98348.47;5111942;28;20667;-57
2023/09/20 05:14:11;;;;;;;4.82;3.90;;;;;;;19.10;75.40;98375.25;5111443;28;20171;-57
2023/09/20 05:16:37;;;;;;;5.70;4.43;;;;;;;19.18;75.07;98377.91;5111715;28;20689;-56
2023/09/20 05:19:03;;;;;;;4.82;4.22;;;;;;;19.26;75.68;98379.75;5048427;28;20188;-56
2023/09/20 05:21:29;;;;;;;4.47;3.70;;;;;;;19.26;75.32;98383.22;5048493;28;20221;-57
2023/09/20 05:23:54;;;;;;;4.10;3.70;;;;;;;19.18;75.55;98356.09;5048523;28;20553;-56
2023/09/20 05:26:19;;;;;;;4.80;3.78;;;;;;;19.30;75.09;98362.72;5048607;28;20177;-56
2023/09/20 05:28:46;;;;;;;5.70;3.97;;;;;;;19.51;74.51;98389.31;5048551;28;20611;-57
2023/09/20 05:31:13;;;;;;;4.05;3.70;;;;;;;19.39;74.50;98372.25;5052009;28;20614;-57
2023/09/20 05:33:39;;;;;;;4.97;3.55;;;;;;;19.51;73.50;98370.97;5032814;28;20634;-57
2023/09/20 05:36:05;;;;;;;8.48;4.03;;;;;;;19.75;73.95;98405.94;5032583;28;20185;-57
2023/09/20 05:38:30;;;;;;;7.25;4.53;;;;;;;19.75;74.64;98381.50;5032463;28;20189;-57
2023/09/20 05:40:56;;;;;;;9.40;4.68;;;;;;;19.97;75.11;98415.00;5032323;28;20200;-56
2023/09/20 05:43:21;;;;;;;6.57;4.65;;;;;;;19.84;74.33;98383.16;5032271;28;20212;-56
2023/09/20 05:45:47;;;;;;;5.80;4.40;;;;;;;20.07;74.46;98411.28;5032407;28;20232;-56
2023/09/20 05:48:12;;;;;;;6.38;4.32;;;;;;;20.12;74.15;98401.06;5032262;28;20632;-56
2023/09/20 05:50:38;;;;;;;7.57;5.43;;;;;;;20.16;74.08;98398.97;5077257;28;20218;-57
2023/09/20 05:53:12;;;;;;;7.60;4.70;;;;;;;20.17;74.36;98397.97;5092487;28;20180;-57
2023/09/20 05:55:43;;;;;;;6.03;3.90;;;;;;;20.16;73.12;98404.22;5092280;28;20176;-57
2023/09/20 05:58:09;;;;;;;4.28;3.63;;;;;;;20.27;71.23;98422.25;5092232;28;20279;-57
2023/09/20 06:00:35;;;;;;;4.28;3.97;;;;;;;20.25;70.83;98408.47;5092357;28;20639;-57
2023/09/20 06:03:04;;;;;;;3.80;3.50;;;;;;;20.16;70.44;98398.97;5092118;28;20268;-57
2023/09/20 06:05:31;;;;;;;4.13;3.70;;;;;;;20.01;71.25;98396.13;5111406;28;20195;-57
2023/09/20 06:07:57;;;;;;;4.32;3.90;;;;;;;20.13;70.36;98396.66;5115069;28;20171;-57
2023/09/20 06:10:23;;;;;;;6.25;3.67;;;;;;;20.37;70.45;98425.53;5115030;28;20667;-57
2023/09/20 06:12:52;;;;;;;5.50;4.15;;;;;;;20.36;69.68;98400.25;5114980;28;20191;-57
2023/09/20 06:15:18;;;;;;;4.70;4.30;;;;;;;20.61;69.39;98428.13;5114848;28;20175;-57
2023/09/20 06:17:47;;;;;;;6.20;4.40;;;;;;;20.81;68.09;98424.16;5114850;28;20537;-57
2023/09/20 06:20:19;;;;;;;8.68;4.03;;;;;;;20.73;67.96;98403.94;5114741;28;20212;-57
2023/09/20 06:22:48;;;;;;;5.18;3.75;;;;;;;20.83;67.86;98409.00;5114547;28;20211;-57
2023/09/20 06:25:15;;;;;;;5.03;3.60;;;;;;;20.89;67.54;98414.47;5114529;28;20248;-57
2023/09/20 06:27:41;;;;;;;4.18;3.78;;;;;;;21.02;67.69;98441.06;5114599;28;20191;-57
2023/09/20 06:30:12;;;;;;;3.50;3.20;;;;;;;21.03;67.23;98419.00;5114608;28;20628;-57
2023/09/20 06:32:38;;;;;;;7.22;3.83;;;;;;;21.11;67.67;98407.63;5114470;28;20183;-57
2023/09/20 06:35:04;;;;;;;10.38;4.95;;;;;;;21.46;67.91;98441.38;5114141;28;20167;-58
2023/09/20 06:37:30;;;;;;;7.72;5.15;;;;;;;21.41;68.25;98414.72;5114237;28;20193;-57
2023/09/20 06:39:56;;;;;;;9.32;5.53;;;;;;;21.52;68.80;98425.72;5114385;28;20250;-57
2023/09/20 06:42:30;;;;;;;9.50;5.50;;;;;;;21.55;68.24;98416.63;5113248;28;20315;-57
2023/09/20 06:44:56;;;;;;;14.23;5.55;;;;;;;21.90;67.93;98458.25;5114159;28;20171;-57
2023/09/20 06:47:22;;;;;;;18.38;6.07;;;;;;;21.84;68.05;98425.53;5114162;28;20182;-56
2023/09/20 06:49:48;;;;;;;9.85;6.10;;;;;;;22.16;67.01;98454.31;5113821;28;20171;-57
2023/09/20 06:52:13;;;;;;;14.48;6.78;;;;;;;22.21;66.69;98444.03;5114015;28;20278;-56
2023/09/20 06:54:39;;;;;;;15.45;7.47;;;;;;;22.23;66.40;98433.31;5113767;28;20216;-57
2023/09/20 06:57:05;;;;;;;13.10;6.57;;;;;;;22.40;66.81;98442.72;5113982;28;20171;-57
2023/09/20 06:59:34;;;;;;;11.43;6.45;;;;;;;22.55;66.58;98460.25;5113928;28;20582;-56
2023/09/20 07:02:00;;;;;;;18.20;6.38;;;;;;;22.58;67.05;98453.78;5113733;28;20214;-57
2023/09/20 07:04:25;;;;;;;17.15;6.43;;;;;;;22.62;67.61;98455.09;5113869;28;20171;-57
2023/09/20 07:06:57;;;;;;;11.77;5.53;;;;;;;22.52;66.39;98428.13;5113857;28;20633;-57
2023/09/20 07:09:23;;;;;;;11.35;5.90;;;;;;;22.62;65.90;98444.53;5113669;28;20543;-56
2023/09/20 07:11:53;;;;;;;8.45;5.90;;;;;;;22.78;66.03;98465.50;5113497;28;20187;-57
2023/09/20 07:14:20;;;;;;;9.77;4.75;;;;;;;22.87;66.20;98459.09;5113638;28;20164;-57
2023/09/20 07:16:51;;;;;;;7.97;5.45;;;;;;;22.88;66.51;98458.09;5113594;28;20637;-57
2023/09/20 07:19:18;;;;;;;12.15;6.05;;;;;;;22.92;66.12;98462.03;5113568;28;20175;-57
2023/09/20 07:21:44;;;;;;;7.38;5.43;;;;;;;22.96;65.63;98453.56;5113509;28;20199;-56
2023/09/20 07:24:12;;;;;;;12.80;5.53;;;;;;;22.90;65.80;98429.72;5113450;28;20171;-56
2023/09/20 07:26:38;;;;;;;6.60;4.95;;;;;;;23.04;66.39;98435.00;5113352;28;20217;-57
2023/09/20 07:29:05;;;;;;;6.03;4.97;;;;;;;23.14;66.01;98445.28;5113391;28;20171;-57
2023/09/20 07:31:36;;;;;;;10.05;5.05;;;;;;;23.40;64.92;98466.78;5113399;28;20656;-57
2023/09/20 07:34:03;;;;;;;6.60;4.70;;;;;;;23.50;64.51;98472.59;5113208;28;20235;-57
2023/09/20 07:36:30;;;;;;;9.57;5.15;;;;;;;23.36;64.63;98436.47;5113321;28;20332;-57
2023/09/20 07:38:56;;;;;;;6.90;4.88;;;;;;;23.55;65.05;98460.47;5113169;28;20171;-56
2023/09/20 07:41:22;;;;;;;10.20;5.03;;;;;;;23.57;64.22;98442.63;5113011;28;20675;-56
2023/09/20 07:43:47;;;;;;;10.93;4.80;;;;;;;23.63;63.54;98442.69;5112782;28;20171;-56
2023/09/20 07:46:15;;;;;;;8.52;5.15;;;;;;;23.80;63.78;98454.66;5112959;28;20213;-56
2023/09/20 07:48:52;;;;;;;9.02;4.88;;;;;;;23.98;63.49;98468.31;5113076;28;20525;-57
2023/09/20 07:51:23;;;;;;;5.90;4.72;;;;;;;23.96;62.90;98436.97;5112996;28;20624;-56
2023/09/20 07:53:49;;;;;;;7.72;5.32;;;;;;;24.02;62.62;98452.91;5111800;28;20254;-57
2023/09/20 07:56:15;;;;;;;7.38;5.38;;;;;;;24.19;62.89;98476.25;5112781;28;20171;-56
2023/09/20 07:58:40;;;;;;;5.93;4.80;;;;;;;24.27;63.03;98481.41;5112898;28;20249;-56
2023/09/20 08:01:21;;;;;;;7.25;4.90;;;;;;;24.37;62.45;98474.00;5112747;28;20259;-57
2023/09/20 08:03:51;;;;;;;7.70;4.95;;;;;;;24.35;62.03;98457.50;5113122;28;20182;-56
2023/09/20 08:06:20;;;;;;;5.80;4.65;;;;;;;24.54;61.96;98475.38;5112611;28;20316;-57
2023/09/20 08:08:47;;;;;;;6.50;4.85;;;;;;;24.56;61.22;98452.16;5089643;28;20180;-57
2023/09/20 08:11:13;;;;;;;5.90;4.38;;;;;;;24.60;61.46;98457.91;5089676;28;20265;-57
2023/09/20 08:13:38;;;;;;;5.72;4.72;;;;;;;24.56;61.22;98446.88;5089590;28;20286;-57
2023/09/20 08:16:04;;;;;;;6.45;4.90;;;;;;;24.74;60.98;98464.97;5089607;28;20655;-57
2023/09/20 08:21:14;;;;;;;8.15;4.53;;;;;;;24.65;59.53;98434.34;5089623;28;20210;-56
2023/09/20 09:02:14;;;;;;;6.45;4.50;;;;;;;25.53;54.13;98432.63;5111484;28;21008;-57
2023/09/20 09:04:44;;;;;;;10.18;5.10;;;;;;;25.56;54.06;98424.28;5111248;28;20523;-57
2023/09/20 09:07:10;;;;;;;8.68;5.47;;;;;;;25.27;54.17;98390.97;5111894;28;20644;-56
2023/09/20 09:09:36;;;;;;;5.85;5.18;;;;;;;25.58;54.91;98428.38;5111520;28;20171;-57
2023/09/20 09:12:01;;;;;;;9.55;5.55;;;;;;;25.51;54.75;98390.44;5111391;28;20641;-57
2023/09/20 09:14:27;;;;;;;8.90;5.47;;;;;;;25.71;54.97;98414.34;5111511;28;20187;-57
2023/09/20 09:17:03;;;;;;;18.17;9.32;;;;;;;25.58;54.50;98383.31;5111434;28;20216;-58
2023/09/20 09:19:29;;;;;;;17.50;7.90;;;;;;;25.85;54.22;98414.19;5068250;28;20207;-58
2023/09/20 09:21:56;;;;;;;15.15;5.53;;;;;;;25.82;53.40;98400.47;5068274;28;20212;-58
2023/09/20 09:24:22;;;;;;;13.90;5.07;;;;;;;25.89;53.04;98394.19;5048127;28;20223;-57
2023/09/20 09:26:48;;;;;;;10.07;4.65;;;;;;;25.94;52.96;98386.47;5048119;28;20193;-57
2023/09/20 09:29:17;;;;;;;6.75;5.20;;;;;;;26.02;52.38;98380.97;5048207;28;20254;-57
2023/09/20 09:31:48;;;;;;;8.20;5.35;;;;;;;26.23;53.12;98399.34;5048330;28;20176;-57
2023/09/20 09:34:18;;;;;;;6.43;5.32;;;;;;;26.17;52.72;98381.59;5048259;28;20193;-57
2023/09/20 09:36:44;;;;;;;10.43;5.03;;;;;;;26.28;52.16;98404.88;5048297;28;20597;-58
2023/09/20 09:39:10;;;;;;;11.35;5.00;;;;;;;26.32;50.89;98381.38;5048060;28;20199;-58
2023/09/20 09:41:43;;;;;;;5.57;4.55;;;;;;;26.24;51.10;98363.03;5048096;28;20248;-56
2023/09/20 09:44:08;;;;;;;5.47;4.95;;;;;;;26.50;50.91;98393.03;5027924;28;20193;-57
2023/09/20 09:46:36;;;;;;;11.60;4.57;;;;;;;26.48;51.02;98375.66;5028174;28;20221;-57
2023/09/20 09:49:02;;;;;;;9.45;5.00;;;;;;;26.61;51.58;98383.63;5028131;28;20250;-57
2023/09/20 09:51:32;;;;;;;12.07;5.07;;;;;;;26.78;50.45;98390.16;5046282;28;20201;-57
2023/09/20 09:54:00;;;;;;;5.88;4.90;;;;;;;26.87;50.04;98388.91;5047958;28;20185;-58
2023/09/20 09:56:26;;;;;;;7.85;4.80;;;;;;;26.86;49.59;98373.97;5066926;28;20271;-57
2023/09/20 09:58:52;;;;;;;7.65;4.43;;;;;;;27.00;49.01;98376.38;5067971;28;20613;-57
2023/09/20 10:01:18;;;;;;;5.55;4.47;;;;;;;26.93;48.61;98378.25;5047708;28;20224;-57
2023/09/20 10:03:49;;;;;;;7.15;4.72;;;;;;;26.87;48.58;98368.47;5048037;28;20643;-58
2023/09/20 10:06:23;;;;;;;8.15;4.22;;;;;;;27.08;48.82;98376.19;5047924;28;20236;-58
2023/09/20 10:08:55;;;;;;;6.95;4.18;;;;;;;27.06;47.47;98343.66;5048043;28;20564;-57
2023/09/20 10:11:22;;;;;;;6.85;4.25;;;;;;;27.29;47.67;98373.25;5047948;28;20227;-60
2023/09/20 10:13:50;;;;;;;4.43;4.03;;;;;;;27.40;47.57;98379.75;5047837;28;20193;-58
2023/09/20 10:16:16;;;;;;;10.65;4.53;;;;;;;27.56;47.30;98384.56;5086906;28;20188;-58
2023/09/20 10:18:53;;;;;;;5.68;4.47;;;;;;;27.63;47.32;98378.19;5091937;28;20605;-58
2023/09/20 10:21:24;;;;;;;7.00;4.20;;;;;;;27.57;46.18;98343.69;5071278;28;20325;-57
2023/09/20 10:24:14;;;;;;;9.98;4.63;;;;;;;27.85;47.27;98373.38;5071389;28;20192;-57
2023/09/20 10:26:40;;;;;;;6.00;4.78;;;;;;;27.98;46.36;98371.44;5071524;28;20237;-57
2023/09/20 10:29:28;;;;;;;4.28;3.88;;;;;;;28.13;45.27;98385.25;5071406;28;20184;-57
2023/09/20 10:32:14;;;;;;;8.55;4.20;;;;;;;28.18;45.44;98369.47;5078213;28;20298;-57
2023/09/20 10:34:40;;;;;;;5.47;4.13;;;;;;;28.25;44.55;98356.91;5091296;28;20229;-57
2023/09/20 10:37:10;;;;;;;3.92;3.20;;;;;;;28.36;43.22;98342.88;5091476;28;20184;-57
2023/09/20 10:39:38;;;;;;;4.60;3.58;;;;;;;28.47;43.15;98333.38;5091527;28;20179;-57
2023/09/20 10:42:12;;;;;;;10.52;4.55;;;;;;;28.59;43.50;98334.28;5091161;28;20717;-57
2023/09/20 10:44:41;;;;;;;6.22;3.70;;;;;;;28.91;42.95;98362.44;5091289;28;20187;-57
2023/09/20 10:47:14;;;;;;;7.47;4.53;;;;;;;29.03;42.24;98358.81;5091194;28;20250;-57
2023/09/20 10:49:49;;;;;;;4.70;3.78;;;;;;;28.83;42.54;98317.44;5091351;28;20183;-57
2023/09/20 10:52:33;;;;;;;4.00;3.70;;;;;;;29.02;41.76;98349.19;5101943;28;20229;-57
2023/09/20 10:55:18;;;;;;;9.65;3.95;;;;;;;29.04;42.60;98349.78;5114323;28;20210;-57
2023/09/20 10:57:45;;;;;;;6.60;3.78;;;;;;;29.07;42.07;98328.03;5113968;28;20223;-57
2023/09/20 11:00:14;;;;;;;3.55;3.22;;;;;;;29.46;41.08;98354.19;5113894;28;20175;-57
2023/09/20 11:02:40;;;;;;;4.55;2.83;;;;;;;29.60;40.54;98360.16;5113853;28;20199;-57
2023/09/20 11:05:06;;;;;;;3.92;2.67;;;;;;;29.55;39.08;98358.19;5113760;28;20622;-57
2023/09/20 11:07:32;;;;;;;4.65;2.53;;;;;;;29.28;39.03;98338.22;5114125;28;20265;-57
2023/09/20 11:09:58;;;;;;;3.20;2.90;;;;;;;29.40;39.83;98323.09;5113769;28;20262;-57
2023/09/20 11:12:23;;;;;;;5.57;3.00;;;;;;;29.68;39.51;98355.31;5113553;28;20186;-57
2023/09/20 11:14:50;;;;;;;5.22;2.55;;;;;;;29.66;39.11;98338.75;5113630;28;20175;-58
2023/09/20 11:17:16;;;;;;;3.70;2.70;;;;;;;29.75;38.75;98321.38;5113521;28;20258;-58
2023/09/20 11:19:42;;;;;;;2.83;2.50;;;;;;;29.86;38.54;98328.56;5113491;28;20183;-58
2023/09/20 11:22:09;;;;;;;3.78;2.70;;;;;;;30.07;38.88;98336.03;5113513;28;20209;-58
2023/09/20 11:24:36;;;;;;;8.38;3.45;;;;;;;30.10;39.44;98342.81;5113435;28;20183;-58
2023/09/20 11:27:02;;;;;;;5.22;3.20;;;;;;;30.17;39.69;98336.31;5113373;28;20175;-58
2023/09/20 11:29:27;;;;;;;4.63;2.80;;;;;;;30.28;38.77;98318.69;5113243;28;20629;-57
2023/09/20 11:31:57;;;;;;;5.10;2.97;;;;;;;30.38;37.69;98342.97;5113368;28;20167;-58
2023/09/20 11:34:24;;;;;;;5.40;3.55;;;;;;;30.37;38.02;98326.09;5113241;28;20210;-58
2023/09/20 11:36:53;;;;;;;3.80;3.38;;;;;;;30.43;37.50;98319.84;5113163;28;20171;-58
2023/09/20 11:39:27;;;;;;;3.85;3.03;;;;;;;30.59;37.15;98329.81;5113037;28;20190;-57
2023/09/20 11:41:58;;;;;;;3.50;3.20;;;;;;;30.74;37.33;98327.53;5112998;28;20199;-58
2023/09/20 11:44:25;;;;;;;3.67;3.05;;;;;;;30.79;37.25;98324.94;5069983;28;20261;-56
2023/09/20 11:46:55;;;;;;;5.00;3.28;;;;;;;30.77;37.57;98311.00;5069912;28;20192;-56
2023/09/20 11:49:21;;;;;;;4.13;3.38;;;;;;;30.70;37.43;98310.34;5070070;28;20232;-57
2023/09/20 11:51:47;;;;;;;3.50;3.20;;;;;;;30.60;37.42;98291.38;5069910;28;20184;-57
2023/09/20 11:54:13;;;;;;;3.90;2.80;;;;;;;30.59;37.53;98281.75;5069830;28;20747;-57
2023/09/20 11:56:38;;;;;;;6.85;2.97;;;;;;;30.87;37.35;98311.22;5069749;28;20177;-57
2023/09/20 11:59:11;;;;;;;5.97;3.38;;;;;;;30.58;36.90;98290.81;5069782;28;20184;-57
2023/09/20 12:01:42;;;;;;;2.90;2.70;;;;;;;30.95;37.06;98308.16;5069716;28;20295;-57
2023/09/20 12:04:08;;;;;;;2.85;2.50;;;;;;;31.04;37.07;98290.72;5069575;28;20199;-57
2023/09/20 12:06:35;;;;;;;3.78;3.08;;;;;;;31.24;36.89;98306.38;5069582;28;20181;-57
2023/09/20 12:09:00;;;;;;;5.20;2.75;;;;;;;30.96;35.65;98291.09;5069411;28;20272;-57
2023/09/20 12:11:26;;;;;;;3.35;3.08;;;;;;;31.04;36.67;98276.53;5069462;28;20271;-57
2023/09/20 12:13:52;;;;;;;5.53;3.35;;;;;;;31.13;35.24;98296.50;5069255;28;20200;-57
2023/09/20 12:16:18;;;;;;;5.13;2.50;;;;;;;31.02;35.85;98284.78;5064113;28;20184;-57